sensor_id;sensor_type;location;lat;lon;timestamp;pressure;altitude;pressure_sealevel;temperature;humidity
25510;BME280;13413;52.336;21.200;2022-12-07T00:01:09;99759.40;;;4.96;68.70
25510;BME280;13413;52.336;21.200;2022-12-07T00:14:51;99746.08;;;4.97;68.71
25510;BME280;13413;52.336;21.200;2022-12-07T00:18:12;99744.51;;;4.98;68.77
25510;BME280;13413;52.336;21.200;2022-12-07T00:21:32;99740.39;;;5.01;68.82
25510;BME280;13413;52.336;21.200;2022-12-07T00:25:06;99739.48;;;4.99;68.87
25510;BME280;13413;52.336;21.200;2022-12-07T00:44:22;99732.16;;;4.99;68.96
25510;BME280;13413;52.336;21.200;2022-12-07T00:47:42;99729.78;;;5.00;68.91
25510;BME280;13413;52.336;21.200;2022-12-07T00:51:03;99735.03;;;5.00;69.03
25510;BME280;13413;52.336;21.200;2022-12-07T00:54:37;99734.60;;;5.01;68.85
25510;BME280;13413;52.336;21.200;2022-12-07T00:58:11;99730.45;;;5.01;68.95
25510;BME280;13413;52.336;21.200;2022-12-07T01:01:34;99729.27;;;4.98;69.00
25510;BME280;13413;52.336;21.200;2022-12-07T01:05:08;99726.30;;;4.98;69.06
25510;BME280;13413;52.336;21.200;2022-12-07T01:08:40;99729.01;;;4.94;69.07
25510;BME280;13413;52.336;21.200;2022-12-07T01:12:13;99727.90;;;4.91;69.13
25510;BME280;13413;52.336;21.200;2022-12-07T01:15:41;99727.10;;;4.92;69.06
25510;BME280;13413;52.336;21.200;2022-12-07T01:25:05;99719.67;;;4.96;69.16
25510;BME280;13413;52.336;21.200;2022-12-07T01:28:25;99719.34;;;4.96;69.34
25510;BME280;13413;52.336;21.200;2022-12-07T01:31:51;99725.02;;;4.95;69.37
25510;BME280;13413;52.336;21.200;2022-12-07T01:44:31;99720.52;;;4.96;69.42
25510;BME280;13413;52.336;21.200;2022-12-07T01:47:53;99719.17;;;4.91;69.19
25510;BME280;13413;52.336;21.200;2022-12-07T01:51:15;99714.13;;;4.92;69.21
25510;BME280;13413;52.336;21.200;2022-12-07T01:54:49;99714.58;;;4.91;69.35
25510;BME280;13413;52.336;21.200;2022-12-07T01:58:23;99710.63;;;4.92;69.29
25510;BME280;13413;52.336;21.200;2022-12-07T02:01:42;99707.10;;;4.96;69.29
25510;BME280;13413;52.336;21.200;2022-12-07T02:05:17;99704.73;;;4.99;69.29
25510;BME280;13413;52.336;21.200;2022-12-07T02:14:39;99698.55;;;4.99;69.29
25510;BME280;13413;52.336;21.200;2022-12-07T02:18:04;99694.20;;;5.02;69.27
25510;BME280;13413;52.336;21.200;2022-12-07T02:21:32;99693.08;;;5.01;69.16
25510;BME280;13413;52.336;21.200;2022-12-07T02:24:57;99687.48;;;5.03;69.29
25510;BME280;13413;52.336;21.200;2022-12-07T02:28:28;99681.17;;;5.06;69.34
25510;BME280;13413;52.336;21.200;2022-12-07T02:31:54;99676.54;;;5.08;69.28
25510;BME280;13413;52.336;21.200;2022-12-07T02:35:32;99672.33;;;5.08;69.46
25510;BME280;13413;52.336;21.200;2022-12-07T02:39:10;99676.39;;;5.11;69.42
25510;BME280;13413;52.336;21.200;2022-12-07T02:42:42;99673.83;;;5.12;69.52
25510;BME280;13413;52.336;21.200;2022-12-07T02:49:59;99664.41;;;5.17;69.96
25510;BME280;13413;52.336;21.200;2022-12-07T02:53:36;99661.05;;;5.21;69.85
25510;BME280;13413;52.336;21.200;2022-12-07T02:57:00;99658.33;;;5.24;70.00
25510;BME280;13413;52.336;21.200;2022-12-07T03:05:16;99655.59;;;5.31;70.18
25510;BME280;13413;52.336;21.200;2022-12-07T03:08:50;99656.98;;;5.36;70.17
25510;BME280;13413;52.336;21.200;2022-12-07T03:12:15;99654.44;;;5.39;70.15
25510;BME280;13413;52.336;21.200;2022-12-07T03:15:40;99658.71;;;5.40;70.09
25510;BME280;13413;52.336;21.200;2022-12-07T03:19:11;99653.71;;;5.40;70.03
25510;BME280;13413;52.336;21.200;2022-12-07T03:22:34;99655.73;;;5.38;69.98
25510;BME280;13413;52.336;21.200;2022-12-07T03:25:58;99659.96;;;5.40;69.97
25510;BME280;13413;52.336;21.200;2022-12-07T03:32:45;99653.02;;;5.29;70.08
25510;BME280;13413;52.336;21.200;2022-12-07T03:36:10;99647.59;;;5.24;70.16
25510;BME280;13413;52.336;21.200;2022-12-07T03:39:49;99646.73;;;5.21;70.05
25510;BME280;13413;52.336;21.200;2022-12-07T03:43:10;99647.17;;;5.20;70.17
25510;BME280;13413;52.336;21.200;2022-12-07T03:46:36;99639.98;;;5.20;69.93
25510;BME280;13413;52.336;21.200;2022-12-07T03:50:18;99640.86;;;5.20;69.97
25510;BME280;13413;52.336;21.200;2022-12-07T03:53:43;99636.65;;;5.20;69.96
25510;BME280;13413;52.336;21.200;2022-12-07T03:57:06;99635.55;;;5.20;70.15
25510;BME280;13413;52.336;21.200;2022-12-07T04:00:32;99635.89;;;5.19;69.91
25510;BME280;13413;52.336;21.200;2022-12-07T04:04:05;99635.91;;;5.20;69.99
25510;BME280;13413;52.336;21.200;2022-12-07T04:07:33;99632.48;;;5.18;70.10
25510;BME280;13413;52.336;21.200;2022-12-07T04:10:51;99631.63;;;5.16;70.02
25510;BME280;13413;52.336;21.200;2022-12-07T04:14:24;99635.38;;;5.20;70.02
25510;BME280;13413;52.336;21.200;2022-12-07T04:17:43;99633.45;;;5.20;70.00
25510;BME280;13413;52.336;21.200;2022-12-07T04:21:03;99630.33;;;5.15;70.01
25510;BME280;13413;52.336;21.200;2022-12-07T04:24:24;99630.46;;;5.17;69.99
25510;BME280;13413;52.336;21.200;2022-12-07T04:27:44;99626.11;;;5.15;70.02
25510;BME280;13413;52.336;21.200;2022-12-07T04:31:03;99626.16;;;5.16;70.19
25510;BME280;13413;52.336;21.200;2022-12-07T04:34:23;99626.58;;;5.21;70.10
25510;BME280;13413;52.336;21.200;2022-12-07T04:37:42;99625.20;;;5.22;70.00
25510;BME280;13413;52.336;21.200;2022-12-07T04:41:07;99619.77;;;5.22;70.13
25510;BME280;13413;52.336;21.200;2022-12-07T04:44:27;99619.21;;;5.21;70.20
25510;BME280;13413;52.336;21.200;2022-12-07T04:47:47;99614.72;;;5.22;69.95
25510;BME280;13413;52.336;21.200;2022-12-07T04:51:07;99617.94;;;5.21;70.12
25510;BME280;13413;52.336;21.200;2022-12-07T04:54:26;99620.90;;;5.23;70.07
25510;BME280;13413;52.336;21.200;2022-12-07T04:57:46;99621.71;;;5.20;70.05
25510;BME280;13413;52.336;21.200;2022-12-07T05:01:05;99611.33;;;5.19;70.10
25510;BME280;13413;52.336;21.200;2022-12-07T05:04:24;99613.34;;;5.15;70.21
25510;BME280;13413;52.336;21.200;2022-12-07T05:07:44;99612.06;;;5.17;70.21
25510;BME280;13413;52.336;21.200;2022-12-07T05:20:32;99601.96;;;5.25;70.25
25510;BME280;13413;52.336;21.200;2022-12-07T05:23:51;99602.98;;;5.23;70.13
25510;BME280;13413;52.336;21.200;2022-12-07T05:27:10;99601.35;;;5.22;70.16
25510;BME280;13413;52.336;21.200;2022-12-07T05:30:29;99601.56;;;5.23;70.07
25510;BME280;13413;52.336;21.200;2022-12-07T05:33:48;99601.73;;;5.20;70.13
25510;BME280;13413;52.336;21.200;2022-12-07T05:37:08;99601.01;;;5.22;70.00
25510;BME280;13413;52.336;21.200;2022-12-07T05:40:26;99594.71;;;5.18;69.85
25510;BME280;13413;52.336;21.200;2022-12-07T05:47:17;99598.94;;;5.10;69.74
25510;BME280;13413;52.336;21.200;2022-12-07T05:50:36;99600.33;;;5.06;69.71
25510;BME280;13413;52.336;21.200;2022-12-07T05:53:56;99605.45;;;5.03;69.69
25510;BME280;13413;52.336;21.200;2022-12-07T05:57:16;99599.09;;;4.98;69.90
25510;BME280;13413;52.336;21.200;2022-12-07T06:00:35;99602.33;;;4.94;69.80
25510;BME280;13413;52.336;21.200;2022-12-07T06:03:53;99603.64;;;4.94;69.77
25510;BME280;13413;52.336;21.200;2022-12-07T06:07:14;99599.77;;;4.90;69.76
25510;BME280;13413;52.336;21.200;2022-12-07T06:10:33;99602.20;;;4.89;69.85
25510;BME280;13413;52.336;21.200;2022-12-07T06:13:52;99604.14;;;4.89;69.66
25510;BME280;13413;52.336;21.200;2022-12-07T06:17:11;99606.25;;;4.84;69.71
25510;BME280;13413;52.336;21.200;2022-12-07T06:20:31;99607.79;;;4.77;69.87
25510;BME280;13413;52.336;21.200;2022-12-07T06:23:51;99607.48;;;4.75;70.04
25510;BME280;13413;52.336;21.200;2022-12-07T06:27:11;99602.33;;;4.73;70.10
25510;BME280;13413;52.336;21.200;2022-12-07T06:30:31;99600.16;;;4.72;70.13
25510;BME280;13413;52.336;21.200;2022-12-07T06:33:51;99595.15;;;4.71;69.94
25510;BME280;13413;52.336;21.200;2022-12-07T06:37:15;99596.01;;;4.71;70.12
25510;BME280;13413;52.336;21.200;2022-12-07T06:40:34;99591.38;;;4.73;70.18
25510;BME280;13413;52.336;21.200;2022-12-07T06:43:53;99593.52;;;4.71;70.02
25510;BME280;13413;52.336;21.200;2022-12-07T06:47:13;99595.66;;;4.69;70.34
25510;BME280;13413;52.336;21.200;2022-12-07T06:50:32;99594.02;;;4.68;70.20
25510;BME280;13413;52.336;21.200;2022-12-07T06:53:52;99594.39;;;4.64;70.24
25510;BME280;13413;52.336;21.200;2022-12-07T06:57:12;99592.29;;;4.64;70.33
25510;BME280;13413;52.336;21.200;2022-12-07T07:00:32;99591.83;;;4.64;70.21
25510;BME280;13413;52.336;21.200;2022-12-07T07:03:52;99592.32;;;4.62;70.40
25510;BME280;13413;52.336;21.200;2022-12-07T07:07:11;99590.97;;;4.62;70.27
25510;BME280;13413;52.336;21.200;2022-12-07T07:10:31;99593.49;;;4.61;70.28
25510;BME280;13413;52.336;21.200;2022-12-07T07:13:50;99591.59;;;4.61;70.34
25510;BME280;13413;52.336;21.200;2022-12-07T07:17:10;99593.39;;;4.60;70.17
25510;BME280;13413;52.336;21.200;2022-12-07T07:20:29;99590.73;;;4.58;70.16
25510;BME280;13413;52.336;21.200;2022-12-07T07:23:48;99589.95;;;4.56;70.25
25510;BME280;13413;52.336;21.200;2022-12-07T07:27:07;99590.84;;;4.56;70.33
25510;BME280;13413;52.336;21.200;2022-12-07T07:30:26;99586.89;;;4.54;70.32
25510;BME280;13413;52.336;21.200;2022-12-07T07:33:44;99587.55;;;4.52;70.34
25510;BME280;13413;52.336;21.200;2022-12-07T07:43:54;99588.23;;;4.54;70.61
25510;BME280;13413;52.336;21.200;2022-12-07T07:47:14;99585.34;;;4.54;70.46
25510;BME280;13413;52.336;21.200;2022-12-07T07:50:34;99582.28;;;4.57;70.49
25510;BME280;13413;52.336;21.200;2022-12-07T07:53:54;99583.30;;;4.58;70.54
25510;BME280;13413;52.336;21.200;2022-12-07T07:57:14;99590.98;;;4.61;70.22
25510;BME280;13413;52.336;21.200;2022-12-07T08:00:35;99591.61;;;4.66;70.60
25510;BME280;13413;52.336;21.200;2022-12-07T08:03:54;99593.64;;;4.68;70.43
25510;BME280;13413;52.336;21.200;2022-12-07T08:07:28;99588.34;;;4.69;70.46
25510;BME280;13413;52.336;21.200;2022-12-07T08:10:46;99590.60;;;4.65;70.60
25510;BME280;13413;52.336;21.200;2022-12-07T08:14:05;99590.55;;;4.71;70.45
25510;BME280;13413;52.336;21.200;2022-12-07T08:17:25;99592.55;;;4.76;70.58
25510;BME280;13413;52.336;21.200;2022-12-07T08:20:44;99590.86;;;4.80;70.55
25510;BME280;13413;52.336;21.200;2022-12-07T08:24:04;99593.31;;;4.83;70.70
25510;BME280;13413;52.336;21.200;2022-12-07T08:27:23;99596.95;;;4.85;70.74
25510;BME280;13413;52.336;21.200;2022-12-07T08:30:43;99601.15;;;4.89;70.60
25510;BME280;13413;52.336;21.200;2022-12-07T08:34:03;99599.55;;;4.89;70.81
25510;BME280;13413;52.336;21.200;2022-12-07T08:37:22;99606.78;;;4.92;70.68
25510;BME280;13413;52.336;21.200;2022-12-07T08:40:41;99605.95;;;4.96;70.77
25510;BME280;13413;52.336;21.200;2022-12-07T08:44:01;99605.61;;;4.96;70.80
25510;BME280;13413;52.336;21.200;2022-12-07T08:47:21;99608.67;;;4.99;70.83
25510;BME280;13413;52.336;21.200;2022-12-07T08:50:41;99602.66;;;4.98;70.88
25510;BME280;13413;52.336;21.200;2022-12-07T08:54:03;99602.61;;;5.00;71.02
25510;BME280;13413;52.336;21.200;2022-12-07T08:57:25;99599.33;;;5.09;70.88
25510;BME280;13413;52.336;21.200;2022-12-07T09:00:45;99598.57;;;5.12;71.11
25510;BME280;13413;52.336;21.200;2022-12-07T09:04:04;99601.73;;;5.18;70.89
25510;BME280;13413;52.336;21.200;2022-12-07T09:07:23;99600.67;;;5.20;70.88
25510;BME280;13413;52.336;21.200;2022-12-07T09:10:42;99598.76;;;5.25;70.85
25510;BME280;13413;52.336;21.200;2022-12-07T09:14:02;99596.59;;;5.29;70.94
25510;BME280;13413;52.336;21.200;2022-12-07T09:17:23;99598.88;;;5.32;71.07
25510;BME280;13413;52.336;21.200;2022-12-07T09:21:01;99591.25;;;5.36;71.13
25510;BME280;13413;52.336;21.200;2022-12-07T09:24:20;99583.36;;;5.42;71.03
25510;BME280;13413;52.336;21.200;2022-12-07T09:27:40;99583.90;;;5.49;70.82
25510;BME280;13413;52.336;21.200;2022-12-07T09:31:01;99578.11;;;5.54;70.83
25510;BME280;13413;52.336;21.200;2022-12-07T09:34:20;99574.89;;;5.52;70.71
25510;BME280;13413;52.336;21.200;2022-12-07T09:37:39;99578.87;;;5.55;70.73
25510;BME280;13413;52.336;21.200;2022-12-07T09:40:58;99583.51;;;5.63;70.62
25510;BME280;13413;52.336;21.200;2022-12-07T09:44:25;99577.86;;;5.65;70.63
25510;BME280;13413;52.336;21.200;2022-12-07T09:47:45;99577.63;;;5.70;70.53
25510;BME280;13413;52.336;21.200;2022-12-07T09:51:16;99575.06;;;5.65;70.65
25510;BME280;13413;52.336;21.200;2022-12-07T10:00:33;99566.52;;;5.69;70.71
25510;BME280;13413;52.336;21.200;2022-12-07T10:03:55;99569.52;;;5.69;70.52
25510;BME280;13413;52.336;21.200;2022-12-07T10:07:18;99564.60;;;5.68;70.37
25510;BME280;13413;52.336;21.200;2022-12-07T10:10:37;99572.52;;;5.71;70.24
25510;BME280;13413;52.336;21.200;2022-12-07T10:14:12;99568.98;;;5.77;70.33
25510;BME280;13413;52.336;21.200;2022-12-07T10:17:38;99563.03;;;5.79;70.08
25510;BME280;13413;52.336;21.200;2022-12-07T10:21:12;99561.75;;;5.81;69.88
25510;BME280;13413;52.336;21.200;2022-12-07T10:24:31;99560.92;;;5.87;69.96
25510;BME280;13413;52.336;21.200;2022-12-07T10:28:01;99555.77;;;5.89;69.88
25510;BME280;13413;52.336;21.200;2022-12-07T10:31:23;99556.72;;;5.89;69.69
25510;BME280;13413;52.336;21.200;2022-12-07T10:34:43;99560.83;;;5.86;69.38
25510;BME280;13413;52.336;21.200;2022-12-07T10:38:07;99560.91;;;5.86;69.43
25510;BME280;13413;52.336;21.200;2022-12-07T10:41:35;99556.61;;;5.88;69.49
25510;BME280;13413;52.336;21.200;2022-12-07T10:45:10;99558.23;;;5.89;69.18
25510;BME280;13413;52.336;21.200;2022-12-07T10:48:37;99558.92;;;5.93;69.03
25510;BME280;13413;52.336;21.200;2022-12-07T10:52:09;99553.62;;;5.93;69.28
25510;BME280;13413;52.336;21.200;2022-12-07T10:55:45;99555.54;;;5.95;68.85
25510;BME280;13413;52.336;21.200;2022-12-07T10:59:21;99561.84;;;5.88;68.62
25510;BME280;13413;52.336;21.200;2022-12-07T11:06:27;99562.34;;;5.90;68.15
25510;BME280;13413;52.336;21.200;2022-12-07T11:10:01;99559.08;;;5.98;68.42
25510;BME280;13413;52.336;21.200;2022-12-07T11:13:32;99555.52;;;6.01;68.26
25510;BME280;13413;52.336;21.200;2022-12-07T11:16:58;99555.91;;;6.09;68.32
25510;BME280;13413;52.336;21.200;2022-12-07T11:20:34;99553.91;;;6.08;68.14
25510;BME280;13413;52.336;21.200;2022-12-07T11:24:04;99560.61;;;6.14;68.22
25510;BME280;13413;52.336;21.200;2022-12-07T11:27:35;99555.70;;;6.17;68.20
25510;BME280;13413;52.336;21.200;2022-12-07T11:31:02;99554.76;;;6.15;67.93
25510;BME280;13413;52.336;21.200;2022-12-07T11:34:30;99551.30;;;6.17;67.91
25510;BME280;13413;52.336;21.200;2022-12-07T11:37:56;99552.20;;;6.16;67.83
25510;BME280;13413;52.336;21.200;2022-12-07T11:41:18;99551.90;;;6.15;67.76
25510;BME280;13413;52.336;21.200;2022-12-07T11:44:44;99553.05;;;6.15;67.59
25510;BME280;13413;52.336;21.200;2022-12-07T11:48:14;99546.02;;;6.11;67.65
25510;BME280;13413;52.336;21.200;2022-12-07T11:51:37;99543.70;;;6.15;67.49
25510;BME280;13413;52.336;21.200;2022-12-07T11:54:59;99534.19;;;6.18;67.55
25510;BME280;13413;52.336;21.200;2022-12-07T11:58:39;99539.48;;;6.15;67.31
25510;BME280;13413;52.336;21.200;2022-12-07T12:02:11;99537.48;;;6.22;67.23
25510;BME280;13413;52.336;21.200;2022-12-07T12:05:31;99541.23;;;6.27;67.19
25510;BME280;13413;52.336;21.200;2022-12-07T12:12:57;99538.39;;;6.33;67.00
25510;BME280;13413;52.336;21.200;2022-12-07T12:24:33;99518.86;;;6.50;66.89
25510;BME280;13413;52.336;21.200;2022-12-07T12:27:57;99512.48;;;6.47;66.65
25510;BME280;13413;52.336;21.200;2022-12-07T12:31:33;99513.36;;;6.52;66.23
25510;BME280;13413;52.336;21.200;2022-12-07T12:35:27;99512.73;;;6.60;66.42
25510;BME280;13413;52.336;21.200;2022-12-07T12:39:07;99515.64;;;6.60;66.72
25510;BME280;13413;52.336;21.200;2022-12-07T12:42:44;99512.39;;;6.53;66.54
25510;BME280;13413;52.336;21.200;2022-12-07T12:50:19;99511.30;;;6.45;66.71
25510;BME280;13413;52.336;21.200;2022-12-07T12:53:37;99507.78;;;6.35;66.74
25510;BME280;13413;52.336;21.200;2022-12-07T12:57:03;99507.88;;;6.35;66.92
25510;BME280;13413;52.336;21.200;2022-12-07T13:00:25;99511.41;;;6.32;66.94
25510;BME280;13413;52.336;21.200;2022-12-07T13:03:55;99510.48;;;6.29;67.22
25510;BME280;13413;52.336;21.200;2022-12-07T13:11:27;99512.84;;;6.27;67.22
25510;BME280;13413;52.336;21.200;2022-12-07T13:14:56;99503.23;;;6.27;67.33
25510;BME280;13413;52.336;21.200;2022-12-07T13:18:34;99501.63;;;6.24;67.24
25510;BME280;13413;52.336;21.200;2022-12-07T13:21:53;99502.09;;;6.24;67.22
25510;BME280;13413;52.336;21.200;2022-12-07T13:25:21;99503.98;;;6.26;67.18
25510;BME280;13413;52.336;21.200;2022-12-07T13:28:44;99501.52;;;6.23;67.00
25510;BME280;13413;52.336;21.200;2022-12-07T13:32:17;99500.31;;;6.22;66.87
25510;BME280;13413;52.336;21.200;2022-12-07T13:35:41;99498.81;;;6.18;66.85
25510;BME280;13413;52.336;21.200;2022-12-07T13:39:16;99499.00;;;6.17;66.78
25510;BME280;13413;52.336;21.200;2022-12-07T13:42:37;99503.22;;;6.19;67.09
25510;BME280;13413;52.336;21.200;2022-12-07T13:45:59;99501.47;;;6.19;67.02
25510;BME280;13413;52.336;21.200;2022-12-07T13:49:21;99501.73;;;6.07;66.90
25510;BME280;13413;52.336;21.200;2022-12-07T13:52:45;99513.35;;;5.98;66.92
25510;BME280;13413;52.336;21.200;2022-12-07T13:56:14;99512.20;;;5.96;66.91
25510;BME280;13413;52.336;21.200;2022-12-07T13:59:35;99510.48;;;5.96;66.97
25510;BME280;13413;52.336;21.200;2022-12-07T14:02:59;99512.41;;;5.94;67.04
25510;BME280;13413;52.336;21.200;2022-12-07T14:06:22;99509.05;;;5.91;67.10
25510;BME280;13413;52.336;21.200;2022-12-07T14:09:42;99504.35;;;5.88;67.09
25510;BME280;13413;52.336;21.200;2022-12-07T14:13:30;99505.27;;;5.87;67.22
25510;BME280;13413;52.336;21.200;2022-12-07T14:17:00;99507.16;;;5.86;67.28
25510;BME280;13413;52.336;21.200;2022-12-07T14:20:34;99501.89;;;5.86;67.30
25510;BME280;13413;52.336;21.200;2022-12-07T14:24:11;99506.93;;;5.80;67.33
25510;BME280;13413;52.336;21.200;2022-12-07T14:27:34;99504.86;;;5.78;67.46
25510;BME280;13413;52.336;21.200;2022-12-07T14:30:53;99508.41;;;5.78;67.58
25510;BME280;13413;52.336;21.200;2022-12-07T14:34:14;99508.56;;;5.80;67.54
25510;BME280;13413;52.336;21.200;2022-12-07T14:37:32;99508.57;;;5.73;67.73
25510;BME280;13413;52.336;21.200;2022-12-07T14:43:54;99508.51;;;5.69;67.85
25510;BME280;13413;52.336;21.200;2022-12-07T14:47:15;99514.98;;;5.69;67.91
25510;BME280;13413;52.336;21.200;2022-12-07T14:50:36;99518.73;;;5.68;67.87
25510;BME280;13413;52.336;21.200;2022-12-07T14:53:56;99518.27;;;5.65;67.86
25510;BME280;13413;52.336;21.200;2022-12-07T14:57:15;99514.63;;;5.66;67.85
25510;BME280;13413;52.336;21.200;2022-12-07T15:00:34;99514.56;;;5.60;67.91
25510;BME280;13413;52.336;21.200;2022-12-07T15:03:54;99517.35;;;5.60;67.84
25510;BME280;13413;52.336;21.200;2022-12-07T15:07:20;99516.77;;;5.48;67.68
25510;BME280;13413;52.336;21.200;2022-12-07T15:10:39;99515.14;;;5.43;67.61
25510;BME280;13413;52.336;21.200;2022-12-07T15:13:59;99514.55;;;5.40;67.49
25510;BME280;13413;52.336;21.200;2022-12-07T15:17:18;99511.86;;;5.41;67.61
25510;BME280;13413;52.336;21.200;2022-12-07T15:20:38;99509.41;;;5.39;67.71
25510;BME280;13413;52.336;21.200;2022-12-07T15:23:57;99505.98;;;5.32;67.59
25510;BME280;13413;52.336;21.200;2022-12-07T15:27:16;99507.10;;;5.23;67.64
25510;BME280;13413;52.336;21.200;2022-12-07T15:30:37;99500.95;;;5.19;67.78
25510;BME280;13413;52.336;21.200;2022-12-07T15:33:57;99498.30;;;5.12;67.89
25510;BME280;13413;52.336;21.200;2022-12-07T15:37:17;99497.55;;;5.11;68.05
25510;BME280;13413;52.336;21.200;2022-12-07T15:40:38;99502.70;;;5.07;68.01
25510;BME280;13413;52.336;21.200;2022-12-07T15:43:57;99496.98;;;5.06;68.10
25510;BME280;13413;52.336;21.200;2022-12-07T15:47:16;99496.60;;;4.97;68.35
25510;BME280;13413;52.336;21.200;2022-12-07T15:50:36;99501.80;;;4.99;68.50
25510;BME280;13413;52.336;21.200;2022-12-07T15:53:55;99496.69;;;4.97;68.53
25510;BME280;13413;52.336;21.200;2022-12-07T15:57:15;99503.84;;;5.00;68.72
25510;BME280;13413;52.336;21.200;2022-12-07T16:00:35;99499.45;;;4.91;68.98
25510;BME280;13413;52.336;21.200;2022-12-07T16:03:56;99499.71;;;4.92;68.87
25510;BME280;13413;52.336;21.200;2022-12-07T16:07:15;99500.32;;;4.98;68.89
25510;BME280;13413;52.336;21.200;2022-12-07T16:10:35;99495.92;;;4.98;68.86
25510;BME280;13413;52.336;21.200;2022-12-07T16:13:54;99495.59;;;5.03;68.99
25510;BME280;13413;52.336;21.200;2022-12-07T16:17:14;99493.08;;;5.04;68.96
25510;BME280;13413;52.336;21.200;2022-12-07T16:20:33;99488.40;;;5.01;69.02
25510;BME280;13413;52.336;21.200;2022-12-07T16:23:53;99488.05;;;5.11;69.11
25510;BME280;13413;52.336;21.200;2022-12-07T16:27:12;99485.10;;;5.16;68.88
25510;BME280;13413;52.336;21.200;2022-12-07T16:30:33;99478.98;;;5.14;68.94
25510;BME280;13413;52.336;21.200;2022-12-07T16:33:54;99481.73;;;5.15;69.08
25510;BME280;13413;52.336;21.200;2022-12-07T16:37:14;99483.73;;;5.21;68.90
25510;BME280;13413;52.336;21.200;2022-12-07T16:40:34;99481.44;;;5.24;69.05
25510;BME280;13413;52.336;21.200;2022-12-07T16:43:53;99476.98;;;5.27;68.99
25510;BME280;13413;52.336;21.200;2022-12-07T16:47:12;99477.77;;;5.26;69.02
25510;BME280;13413;52.336;21.200;2022-12-07T16:50:31;99477.10;;;5.27;69.07
25510;BME280;13413;52.336;21.200;2022-12-07T16:53:53;99474.21;;;5.37;68.93
25510;BME280;13413;52.336;21.200;2022-12-07T17:03:26;99466.27;;;5.40;69.09
25510;BME280;13413;52.336;21.200;2022-12-07T17:06:47;99465.41;;;5.36;69.03
25510;BME280;13413;52.336;21.200;2022-12-07T17:10:09;99462.19;;;5.37;69.06
25510;BME280;13413;52.336;21.200;2022-12-07T17:13:29;99463.91;;;5.42;68.86
25510;BME280;13413;52.336;21.200;2022-12-07T17:16:51;99457.91;;;5.45;68.91
25510;BME280;13413;52.336;21.200;2022-12-07T17:20:12;99463.45;;;5.51;68.88
25510;BME280;13413;52.336;21.200;2022-12-07T17:23:33;99464.19;;;5.53;68.71
25510;BME280;13413;52.336;21.200;2022-12-07T17:26:53;99468.40;;;5.54;68.79
25510;BME280;13413;52.336;21.200;2022-12-07T17:30:15;99467.02;;;5.52;68.77
25510;BME280;13413;52.336;21.200;2022-12-07T17:33:35;99461.33;;;5.54;68.78
25510;BME280;13413;52.336;21.200;2022-12-07T17:36:55;99465.36;;;5.54;68.72
25510;BME280;13413;52.336;21.200;2022-12-07T17:40:15;99469.16;;;5.55;68.66
25510;BME280;13413;52.336;21.200;2022-12-07T17:43:34;99468.17;;;5.56;68.60
25510;BME280;13413;52.336;21.200;2022-12-07T17:46:54;99467.31;;;5.59;68.60
25510;BME280;13413;52.336;21.200;2022-12-07T17:50:13;99464.77;;;5.61;68.54
25510;BME280;13413;52.336;21.200;2022-12-07T17:53:33;99467.54;;;5.57;68.52
25510;BME280;13413;52.336;21.200;2022-12-07T17:56:52;99467.27;;;5.64;68.28
25510;BME280;13413;52.336;21.200;2022-12-07T18:00:14;99462.23;;;5.70;68.21
25510;BME280;13413;52.336;21.200;2022-12-07T18:03:35;99456.88;;;5.68;68.28
25510;BME280;13413;52.336;21.200;2022-12-07T18:06:55;99461.69;;;5.62;67.98
25510;BME280;13413;52.336;21.200;2022-12-07T18:10:15;99462.77;;;5.62;68.11
25510;BME280;13413;52.336;21.200;2022-12-07T18:13:35;99465.40;;;5.58;68.00
25510;BME280;13413;52.336;21.200;2022-12-07T18:16:55;99460.98;;;5.46;68.29
25510;BME280;13413;52.336;21.200;2022-12-07T18:20:15;99464.74;;;5.47;68.49
25510;BME280;13413;52.336;21.200;2022-12-07T18:23:35;99464.98;;;5.50;68.44
25510;BME280;13413;52.336;21.200;2022-12-07T18:26:55;99469.35;;;5.42;68.54
25510;BME280;13413;52.336;21.200;2022-12-07T18:30:16;99471.12;;;5.43;68.55
25510;BME280;13413;52.336;21.200;2022-12-07T18:33:34;99474.77;;;5.43;68.60
25510;BME280;13413;52.336;21.200;2022-12-07T18:36:53;99481.15;;;5.49;68.55
25510;BME280;13413;52.336;21.200;2022-12-07T18:40:14;99485.46;;;5.47;68.44
25510;BME280;13413;52.336;21.200;2022-12-07T18:43:33;99486.55;;;5.51;68.48
25510;BME280;13413;52.336;21.200;2022-12-07T18:46:53;99488.84;;;5.45;68.49
25510;BME280;13413;52.336;21.200;2022-12-07T18:50:13;99488.88;;;5.40;68.57
25510;BME280;13413;52.336;21.200;2022-12-07T18:53:34;99486.14;;;5.37;68.37
25510;BME280;13413;52.336;21.200;2022-12-07T18:56:53;99491.08;;;5.35;68.16
25510;BME280;13413;52.336;21.200;2022-12-07T19:00:14;99493.51;;;5.31;68.06
25510;BME280;13413;52.336;21.200;2022-12-07T19:03:33;99492.85;;;5.31;68.05
25510;BME280;13413;52.336;21.200;2022-12-07T19:06:52;99500.43;;;5.32;68.05
25510;BME280;13413;52.336;21.200;2022-12-07T19:10:13;99496.16;;;5.32;67.93
25510;BME280;13413;52.336;21.200;2022-12-07T19:13:30;99497.64;;;5.30;67.88
25510;BME280;13413;52.336;21.200;2022-12-07T19:23:01;99506.87;;;5.21;67.72
25510;BME280;13413;52.336;21.200;2022-12-07T19:26:22;99508.02;;;5.22;67.92
25510;BME280;13413;52.336;21.200;2022-12-07T19:29:42;99509.88;;;5.17;67.82
25510;BME280;13413;52.336;21.200;2022-12-07T19:33:02;99511.70;;;5.21;67.88
25510;BME280;13413;52.336;21.200;2022-12-07T19:36:22;99513.93;;;5.23;67.92
25510;BME280;13413;52.336;21.200;2022-12-07T19:39:42;99515.54;;;5.20;67.73
25510;BME280;13413;52.336;21.200;2022-12-07T19:43:02;99518.52;;;5.23;67.72
25510;BME280;13413;52.336;21.200;2022-12-07T19:46:21;99525.80;;;5.24;67.85
25510;BME280;13413;52.336;21.200;2022-12-07T19:49:42;99522.92;;;5.29;67.89
25510;BME280;13413;52.336;21.200;2022-12-07T19:53:03;99530.05;;;5.28;67.76
25510;BME280;13413;52.336;21.200;2022-12-07T19:56:22;99529.89;;;5.29;67.66
25510;BME280;13413;52.336;21.200;2022-12-07T19:59:42;99530.10;;;5.25;67.59